Time;durP1;ratioP1;P1;durP2;ratioP2;P2;SDS_P1;SDS_P2;PMS_P1;PMS_P2;Temp;Humidity;BMP_temperature;BMP_pressure;BME280_temperature;BME280_humidity;BME280_pressure;Samples;Min_cycle;Max_cycle;Signal;HPM_P1;HPM_P2
2023/05/08 00:01:40;;;;;;;141.85;101.13;;;;;;;11.70;100.00;101908.72;4993669;28;20412;-45
2023/05/08 00:04:05;;;;;;;146.40;102.05;;;;;;;11.69;100.00;101908.75;4993541;28;20050;-41
2023/05/08 00:06:30;;;;;;;144.98;102.35;;;;;;;11.66;100.00;101914.97;4993568;28;20041;-42
2023/05/08 00:08:56;;;;;;;136.77;101.93;;;;;;;12.03;100.00;101977.56;4993509;28;20034;-41
2023/05/08 00:11:21;;;;;;;149.60;105.32;;;;;;;11.64;100.00;101914.13;4993470;28;20030;-43
2023/05/08 00:13:47;;;;;;;153.80;107.75;;;;;;;11.62;100.00;101907.13;4993389;28;20545;-42
2023/05/08 00:16:12;;;;;;;148.48;103.68;;;;;;;11.54;100.00;101903.78;4993679;28;20065;-41
2023/05/08 00:18:38;;;;;;;151.70;105.25;;;;;;;11.56;100.00;101907.22;4993378;28;20034;-41
2023/05/08 00:21:04;;;;;;;148.55;103.57;;;;;;;11.81;100.00;101951.63;4993614;28;20117;-42
2023/05/08 00:23:30;;;;;;;156.38;104.20;;;;;;;11.73;100.00;101952.66;4993429;28;20042;-41
2023/05/08 00:25:55;;;;;;;147.25;102.78;;;;;;;11.83;100.00;101972.69;4993187;28;20030;-42
2023/05/08 00:28:20;;;;;;;155.07;104.30;;;;;;;11.79;100.00;101965.75;4992346;28;20501;-44
2023/05/08 00:30:46;;;;;;;156.00;107.13;;;;;;;11.79;100.00;101973.66;4993668;28;20062;-42
2023/05/08 00:33:11;;;;;;;148.90;104.38;;;;;;;11.72;100.00;101966.75;4976087;28;20101;-42
2023/05/08 00:35:36;;;;;;;150.93;102.72;;;;;;;11.71;100.00;101965.00;4976147;28;20048;-47
2023/05/08 00:38:02;;;;;;;146.57;102.35;;;;;;;11.71;100.00;101976.44;4976049;28;20118;-43
2023/05/08 00:40:27;;;;;;;149.77;103.70;;;;;;;11.50;100.00;101944.28;4993186;28;20129;-40
2023/05/08 00:42:52;;;;;;;148.55;102.35;;;;;;;11.27;100.00;101913.94;4975672;28;20042;-41
2023/05/08 00:45:18;;;;;;;162.15;104.25;;;;;;;11.57;100.00;101962.59;4975628;28;20034;-43
2023/05/08 00:47:43;;;;;;;171.25;108.22;;;;;;;11.32;100.00;101907.72;4992743;28;20041;-41
2023/05/08 00:50:09;;;;;;;168.40;107.68;;;;;;;11.59;100.00;101965.19;4975944;28;20430;-43
2023/05/08 00:52:35;;;;;;;154.35;102.25;;;;;;;11.29;100.00;101920.03;4975717;28;20084;-42
2023/05/08 00:55:01;;;;;;;164.20;104.95;;;;;;;11.62;100.00;101984.47;4992725;28;20109;-42
2023/05/08 00:57:29;;;;;;;151.52;102.78;;;;;;;11.47;100.00;101955.75;4993013;28;20034;-42
2023/05/08 00:59:54;;;;;;;156.40;103.93;;;;;;;11.49;100.00;101972.44;4975743;28;20485;-41
2023/05/08 01:02:20;;;;;;;170.30;107.95;;;;;;;11.53;100.00;101973.25;4975607;28;20042;-40
2023/05/08 01:04:47;;;;;;;158.70;105.78;;;;;;;11.12;100.00;101903.66;4975539;28;20065;-44
2023/05/08 01:07:12;;;;;;;174.57;108.60;;;;;;;11.49;100.00;101972.44;4975652;28;20068;-41
2023/05/08 01:09:38;;;;;;;151.43;104.85;;;;;;;11.46;100.00;101968.97;4992690;28;20070;-42
2023/05/08 01:12:04;;;;;;;156.50;103.28;;;;;;;11.42;100.00;101980.44;4992451;28;20457;-41
2023/05/08 01:14:50;;;;;;;150.40;103.00;;;;;;;11.18;100.00;101945.72;4993044;28;20122;-43
2023/05/08 01:17:23;;;;;;;159.60;104.63;;;;;;;11.34;100.00;101983.25;4975552;28;20026;-41
2023/05/08 01:20:10;;;;;;;158.50;101.95;;;;;;;11.31;100.00;101972.75;4975377;28;20089;-42
2023/05/08 01:23:13;;;;;;;145.65;99.75;;;;;;;11.27;100.00;101976.31;4992464;28;20022;-41
2023/05/08 01:25:58;;;;;;;154.60;104.75;;;;;;;11.21;100.00;101973.78;4992710;28;20084;-42
2023/05/08 01:28:44;;;;;;;142.88;97.75;;;;;;;11.21;100.00;101992.22;4992742;28;20430;-44
2023/05/08 01:31:31;;;;;;;152.40;102.30;;;;;;;11.19;100.00;101983.50;4992530;28;20479;-41
2023/05/08 01:34:09;;;;;;;160.60;106.28;;;;;;;11.12;100.00;101959.00;4992450;28;20046;-42
2023/05/08 01:37:06;;;;;;;173.32;109.57;;;;;;;11.23;100.00;101975.53;4959280;28;20034;-44
2023/05/08 01:39:59;;;;;;;170.07;106.95;;;;;;;11.25;100.00;101986.91;4970320;28;20117;-42
2023/05/08 01:42:27;;;;;;;159.40;103.85;;;;;;;11.27;100.00;101989.50;4996633;28;20030;-41
2023/05/08 01:44:56;;;;;;;168.35;103.82;;;;;;;11.03;100.00;101953.88;4996472;28;20034;-40
2023/05/08 01:47:26;;;;;;;176.30;108.57;;;;;;;10.89;100.00;101926.91;4978829;28;20030;-41
2023/05/08 01:50:19;;;;;;;170.27;105.75;;;;;;;11.21;100.00;101992.22;4978923;28;20034;-41
2023/05/08 01:52:52;;;;;;;187.25;109.05;;;;;;;11.17;100.00;101994.06;4979103;28;20030;-41
2023/05/08 01:55:26;;;;;;;163.93;103.88;;;;;;;10.85;100.00;101948.94;4978956;28;20456;-40
2023/05/08 01:57:53;;;;;;;170.00;103.85;;;;;;;11.17;100.00;102003.75;4978793;28;20044;-46
2023/05/08 02:00:21;;;;;;;190.40;108.05;;;;;;;10.81;100.00;101936.69;4978968;28;20097;-41
2023/05/08 02:02:47;;;;;;;177.07;102.10;;;;;;;11.13;100.00;101995.00;4975202;28;20089;-42
2023/05/08 02:05:13;;;;;;;152.45;97.57;;;;;;;11.15;100.00;102002.88;4978439;28;20078;-41
2023/05/08 02:07:40;;;;;;;167.43;101.72;;;;;;;10.86;100.00;101947.19;4978664;28;20035;-41
2023/05/08 02:10:06;;;;;;;165.63;99.13;;;;;;;10.88;100.00;101958.56;4978554;28;20095;-42
2023/05/08 02:12:33;;;;;;;176.20;102.32;;;;;;;10.86;100.00;101961.19;4995686;28;20097;-44
2023/05/08 02:15:00;;;;;;;157.13;95.97;;;;;;;11.08;100.00;102001.25;4978975;28;20441;-41
2023/05/08 02:17:25;;;;;;;187.60;103.88;;;;;;;11.06;100.00;102008.31;4978413;28;20042;-41
2023/05/08 02:19:51;;;;;;;160.10;95.47;;;;;;;10.70;100.00;101943.91;4977901;28;20466;-45
2023/05/08 02:22:18;;;;;;;170.15;96.57;;;;;;;10.91;100.00;101984.84;4978208;28;20034;-40
2023/05/08 02:24:44;;;;;;;182.55;100.55;;;;;;;10.78;100.00;101960.44;4995409;28;20041;-42
2023/05/08 02:27:10;;;;;;;172.00;96.95;;;;;;;11.04;100.00;102003.06;4978417;28;20470;-43
2023/05/08 02:29:36;;;;;;;191.85;100.80;;;;;;;10.66;100.00;101944.81;4978206;28;20039;-41
2023/05/08 02:32:02;;;;;;;180.32;100.95;;;;;;;10.94;100.00;102003.25;4995612;28;20050;-40
2023/05/08 02:34:28;;;;;;;163.80;95.55;;;;;;;10.65;100.00;101951.84;4977949;28;20029;-43
2023/05/08 02:36:54;;;;;;;174.15;97.10;;;;;;;10.90;100.00;101989.22;4978129;28;20033;-45
2023/05/08 02:39:20;;;;;;;170.38;95.40;;;;;;;10.80;100.00;101981.50;4977820;28;20038;-47
2023/05/08 02:41:46;;;;;;;181.68;96.10;;;;;;;10.88;100.00;101996.31;4995762;28;20473;-41
2023/05/08 02:44:11;;;;;;;176.02;96.05;;;;;;;10.73;100.00;101973.69;4995606;28;20065;-44
2023/05/08 02:46:48;;;;;;;182.35;96.90;;;;;;;10.78;100.00;101981.50;4995443;28;20034;-44
2023/05/08 02:49:28;;;;;;;170.60;94.13;;;;;;;10.78;100.00;101988.53;4977907;28;20084;-41
2023/05/08 02:52:05;;;;;;;160.35;90.55;;;;;;;10.81;100.00;102009.56;4994200;28;20054;-45
2023/05/08 02:54:44;;;;;;;196.40;96.40;;;;;;;10.76;100.00;101987.69;4978007;28;20066;-41
2023/05/08 02:57:27;;;;;;;183.32;94.57;;;;;;;10.82;100.00;101998.16;4995364;28;20054;-41
2023/05/08 03:00:05;;;;;;;284.52;103.82;;;;;;;10.54;100.00;101942.38;4977706;28;20049;-42
2023/05/08 03:02:42;;;;;;;289.55;100.88;;;;;;;10.91;100.00;102000.66;4989187;28;20042;-42
2023/05/08 03:05:24;;;;;;;232.25;93.97;;;;;;;10.55;100.00;101923.06;4975386;28;20051;-43
2023/05/08 03:07:52;;;;;;;609.67;126.82;;;;;;;10.82;100.00;101977.06;4990964;28;20038;-42
2023/05/08 03:10:18;;;;;;;377.98;104.03;;;;;;;10.88;100.00;101995.44;4960847;28;20045;-43
2023/05/08 03:12:48;;;;;;;336.20;100.28;;;;;;;10.86;100.00;101990.16;4977363;28;20394;-45
2023/05/08 03:15:24;;;;;;;722.83;137.37;;;;;;;10.79;100.00;101982.38;4976978;28;20381;-42
2023/05/08 03:17:56;;;;;;;219.25;90.53;;;;;;;10.80;100.00;101984.97;4977009;28;20293;-42
2023/05/08 03:20:23;;;;;;;325.33;99.10;;;;;;;10.76;100.00;101979.81;4977164;28;20033;-42
2023/05/08 03:22:49;;;;;;;188.65;88.82;;;;;;;10.86;100.00;101991.94;4977364;28;20037;-45
2023/05/08 03:25:17;;;;;;;189.65;87.57;;;;;;;10.81;100.00;101997.28;4977175;28;20039;-42
2023/05/08 03:27:43;;;;;;;169.02;87.22;;;;;;;10.56;100.00;101948.50;4970252;28;20425;-45
2023/05/08 03:30:10;;;;;;;188.52;88.07;;;;;;;10.47;100.00;101930.22;4945687;28;20045;-42
2023/05/08 03:32:36;;;;;;;549.75;124.05;;;;;;;10.74;100.00;101988.59;4958364;28;20049;-45
2023/05/08 03:35:02;;;;;;;366.85;100.38;;;;;;;10.47;100.00;101949.50;4976843;28;20117;-46
2023/05/08 03:37:28;;;;;;;588.45;126.30;;;;;;;10.55;100.00;101965.19;4994321;28;20037;-41
2023/05/08 03:39:54;;;;;;;487.77;111.22;;;;;;;10.35;100.00;101928.63;4994213;28;20389;-45
2023/05/08 03:42:22;;;;;;;336.35;98.30;;;;;;;10.70;100.00;101986.91;4994634;28;20031;-42
2023/05/08 03:44:49;;;;;;;524.17;120.13;;;;;;;10.32;100.00;101918.13;4976964;28;20052;-42
2023/05/08 03:47:16;;;;;;;640.72;123.32;;;;;;;10.62;100.00;101980.84;4976666;28;20058;-42
2023/05/08 03:49:41;;;;;;;310.38;95.50;;;;;;;10.54;100.00;101959.03;4960600;28;20077;-44
2023/05/08 03:52:07;;;;;;;169.00;81.82;;;;;;;10.58;100.00;101958.13;4960749;28;20073;-41
2023/05/08 03:54:32;;;;;;;245.85;90.13;;;;;;;10.62;100.00;101969.50;4994042;28;20034;-46
2023/05/08 03:56:58;;;;;;;209.95;87.35;;;;;;;10.68;100.00;101980.78;4994281;28;20034;-41
2023/05/08 03:59:32;;;;;;;185.95;82.90;;;;;;;10.70;100.00;101986.03;4994148;28;20512;-46
2023/05/08 04:02:25;;;;;;;339.00;97.60;;;;;;;10.73;100.00;101978.09;4976638;28;20042;-43
2023/05/08 04:04:58;;;;;;;191.98;84.97;;;;;;;10.39;100.00;101916.31;4954335;28;20058;-42
2023/05/08 04:07:28;;;;;;;651.38;121.10;;;;;;;10.71;100.00;101980.72;4976273;28;20034;-45
2023/05/08 04:10:09;;;;;;;361.55;99.82;;;;;;;10.38;100.00;101922.44;4960470;28;20109;-42
2023/05/08 04:12:56;;;;;;;390.17;100.32;;;;;;;10.78;100.00;101983.28;4976617;28;20041;-46
2023/05/08 04:15:24;;;;;;;400.77;104.18;;;;;;;10.47;100.00;101927.56;4976176;28;20101;-42
2023/05/08 04:17:59;;;;;;;222.02;86.93;;;;;;;10.57;100.00;101942.34;4993527;28;20053;-45
2023/05/08 04:20:26;;;;;;;257.80;90.22;;;;;;;10.89;100.00;101986.59;4976423;28;20030;-45
2023/05/08 04:22:53;;;;;;;543.25;115.82;;;;;;;10.54;100.00;101932.72;4993232;28;20096;-45
2023/05/08 04:25:18;;;;;;;298.00;94.15;;;;;;;10.60;100.00;101930.00;4975990;28;20030;-41
2023/05/08 04:27:44;;;;;;;398.02;104.18;;;;;;;10.63;100.00;101931.72;4993472;28;20034;-41
2023/05/08 04:30:10;;;;;;;732.00;136.70;;;;;;;10.97;100.00;101990.03;4993329;28;20110;-43
2023/05/08 04:32:36;;;;;;;386.98;104.75;;;;;;;10.93;100.00;101980.41;4975800;28;20161;-41
2023/05/08 04:35:03;;;;;;;224.38;92.32;;;;;;;11.14;100.00;102003.78;4959976;28;20044;-42
2023/05/08 04:37:31;;;;;;;792.35;136.90;;;;;;;11.15;100.00;102006.38;4993009;28;20492;-44
2023/05/08 04:39:57;;;;;;;720.45;131.80;;;;;;;11.12;100.00;101992.41;4993017;28;20030;-42
2023/05/08 04:42:24;;;;;;;471.33;106.80;;;;;;;10.86;100.00;101945.38;4993050;28;20471;-48
2023/05/08 04:44:50;;;;;;;368.08;98.50;;;;;;;10.88;100.00;101942.75;4993001;28;20031;-46
2023/05/08 04:47:15;;;;;;;920.78;138.80;;;;;;;11.23;100.00;101998.38;4993403;28;20109;-42
2023/05/08 04:49:41;;;;;;;798.95;131.38;;;;;;;11.28;100.00;101999.16;4993107;28;20026;-41
2023/05/08 04:52:06;;;;;;;747.13;117.25;;;;;;;11.25;100.00;102000.09;4975567;28;20461;-45
2023/05/08 04:54:32;;;;;;;769.63;114.43;;;;;;;11.25;100.00;101993.94;4975660;28;20449;-42
2023/05/08 04:56:57;;;;;;;782.53;118.03;;;;;;;11.29;100.00;102003.53;4959249;28;20403;-42
2023/05/08 04:59:26;;;;;;;473.75;90.32;;;;;;;11.16;100.00;101973.00;4992748;28;20038;-42
2023/05/08 05:01:51;;;;;;;750.38;113.25;;;;;;;11.35;100.00;102000.81;4975956;28;20513;-41
2023/05/08 05:04:16;;;;;;;658.15;103.85;;;;;;;11.38;100.00;102006.03;4992719;28;20054;-41
2023/05/08 05:06:42;;;;;;;591.50;101.72;;;;;;;11.34;100.00;101996.41;4992893;28;20037;-42
2023/05/08 05:09:08;;;;;;;756.78;114.00;;;;;;;10.88;100.00;101925.19;4992651;28;20144;-43
2023/05/08 05:11:33;;;;;;;638.63;102.75;;;;;;;11.25;100.00;101999.22;4975390;28;20031;-41
2023/05/08 05:13:59;;;;;;;620.97;101.70;;;;;;;11.37;100.00;102029.75;4992548;28;20402;-41
2023/05/08 05:16:25;;;;;;;598.55;101.50;;;;;;;11.42;100.00;102035.81;4975156;28;20140;-41
2023/05/08 05:18:50;;;;;;;780.60;112.97;;;;;;;11.06;100.00;101974.91;4975428;28;20038;-42
2023/05/08 05:21:16;;;;;;;684.47;106.00;;;;;;;11.39;100.00;102034.09;4992687;28;20426;-41
2023/05/08 05:23:41;;;;;;;216.82;74.32;;;;;;;11.35;100.00;102018.38;4992767;28;20042;-42
2023/05/08 05:26:06;;;;;;;325.45;82.30;;;;;;;11.13;100.00;101976.56;4975135;28;20113;-46
2023/05/08 05:28:32;;;;;;;725.75;106.32;;;;;;;11.17;100.00;101980.91;4992512;28;20066;-43
2023/05/08 05:30:57;;;;;;;461.40;85.13;;;;;;;11.50;100.00;102024.25;4974616;28;20504;-42
2023/05/08 05:33:23;;;;;;;439.77;87.45;;;;;;;11.57;100.00;102043.47;4992483;28;20516;-42
2023/05/08 05:35:48;;;;;;;236.18;75.00;;;;;;;11.57;100.00;102046.09;4992446;28;20049;-41
2023/05/08 05:38:13;;;;;;;518.97;95.13;;;;;;;11.44;100.00;102032.25;4991820;28;20049;-45
2023/05/08 05:40:39;;;;;;;437.02;81.00;;;;;;;11.68;100.00;102052.06;4992234;28;20034;-43
2023/05/08 05:43:04;;;;;;;636.90;95.93;;;;;;;11.69;100.00;102053.81;4992206;28;20042;-42
2023/05/08 05:45:30;;;;;;;635.33;95.72;;;;;;;11.70;100.00;102056.44;4975290;28;20114;-45
2023/05/08 05:47:55;;;;;;;628.60;91.57;;;;;;;11.60;100.00;102041.66;4975221;28;20484;-44
2023/05/08 05:50:21;;;;;;;257.15;68.50;;;;;;;11.77;100.00;102060.72;4992606;28;20067;-44
2023/05/08 05:52:46;;;;;;;423.98;71.35;;;;;;;11.78;100.00;102053.69;4992509;28;20076;-46
2023/05/08 05:55:12;;;;;;;289.25;65.45;;;;;;;11.88;100.00;102057.88;4992152;28;20114;-41
2023/05/08 05:57:37;;;;;;;296.77;63.00;;;;;;;11.87;100.00;102045.59;4992129;28;20471;-47
2023/05/08 06:00:04;;;;;;;154.25;49.80;;;;;;;12.06;100.00;102064.56;4959147;28;20474;-45
2023/05/08 06:02:31;;;;;;;148.35;48.33;;;;;;;11.76;100.00;102010.66;4992173;28;20046;-46
2023/05/08 06:04:56;;;;;;;110.40;42.72;;;;;;;11.83;100.00;102017.53;4992094;28;20051;-45
2023/05/08 06:07:22;;;;;;;121.15;43.08;;;;;;;11.77;100.00;101989.50;4992475;28;20034;-41
2023/05/08 06:09:47;;;;;;;120.38;42.17;;;;;;;11.85;100.00;102008.69;4992097;28;20071;-42
2023/05/08 06:12:12;;;;;;;111.07;41.63;;;;;;;11.91;100.00;101994.50;4992406;28;20121;-42
2023/05/08 06:14:38;;;;;;;91.57;40.78;;;;;;;12.30;100.00;102043.00;4975038;28;20030;-42
2023/05/08 06:17:03;;;;;;;98.85;42.67;;;;;;;12.48;100.00;102062.88;4992311;28;20042;-44
2023/05/08 06:19:28;;;;;;;107.95;40.45;;;;;;;12.58;100.00;102057.34;4992064;28;20038;-43
2023/05/08 06:21:54;;;;;;;95.55;40.45;;;;;;;12.62;100.00;102058.16;4974394;28;20046;-44
2023/05/08 06:24:19;;;;;;;117.32;40.47;;;;;;;12.38;100.00;102004.97;4974909;28;20042;-43
2023/05/08 06:26:45;;;;;;;93.85;38.50;;;;;;;12.86;100.00;102063.78;4976339;28;20042;-42
2023/05/08 06:29:11;;;;;;;108.05;40.30;;;;;;;12.64;100.00;101998.25;4995530;28;20125;-42
2023/05/08 06:31:37;;;;;;;92.97;39.20;;;;;;;13.13;100.00;102069.38;4977939;28;20109;-45
2023/05/08 06:34:02;;;;;;;96.00;36.67;;;;;;;13.27;100.00;102060.22;4995528;28;20038;-42
2023/05/08 06:36:28;;;;;;;90.10;35.45;;;;;;;13.34;100.00;102048.56;4995414;28;20503;-43
2023/05/08 06:38:53;;;;;;;88.35;34.72;;;;;;;13.32;100.00;102029.22;4995420;28;20081;-45
2023/05/08 06:41:18;;;;;;;92.60;36.00;;;;;;;13.43;100.00;102048.34;4994940;28;20042;-42
2023/05/08 06:43:44;;;;;;;88.93;37.38;;;;;;;13.58;100.00;102036.50;4991800;28;20034;-43
2023/05/08 06:46:09;;;;;;;89.53;37.75;;;;;;;13.34;100.00;101984.22;4993450;28;20113;-41
2023/05/08 06:48:34;;;;;;;75.82;35.97;;;;;;;13.67;100.00;102024.81;4993269;28;20039;-47
2023/05/08 06:51:00;;;;;;;92.53;34.80;;;;;;;13.74;100.00;102040.50;4993572;28;20181;-42
2023/05/08 06:53:26;;;;;;;88.82;37.28;;;;;;;13.74;100.00;102029.03;4993857;28;20034;-44
2023/05/08 06:55:51;;;;;;;79.10;37.50;;;;;;;13.92;100.00;102047.94;4960098;28;20044;-44
2023/05/08 06:58:17;;;;;;;86.22;38.33;;;;;;;14.07;100.00;102036.94;4993777;28;20043;-45
2023/05/08 07:00:42;;;;;;;89.78;39.03;;;;;;;14.21;100.00;102036.56;4976276;28;20049;-42
2023/05/08 07:03:07;;;;;;;81.43;39.22;;;;;;;14.38;100.00;102041.41;4993801;28;20093;-43
2023/05/08 07:05:33;;;;;;;86.90;39.17;;;;;;;14.45;100.00;102034.97;4993537;28;20066;-41
2023/05/08 07:07:58;;;;;;;75.50;38.20;;;;;;;14.48;100.00;102029.59;4976312;28;20053;-41
2023/05/08 07:10:24;;;;;;;76.60;40.83;;;;;;;14.23;100.00;101975.59;4993427;28;20030;-40
2023/05/08 07:12:50;;;;;;;77.93;38.83;;;;;;;14.32;100.00;101981.53;4976318;28;20117;-44
2023/05/08 07:15:15;;;;;;;77.85;40.03;;;;;;;14.67;100.00;102019.31;4976099;28;20094;-43
2023/05/08 07:17:41;;;;;;;72.68;39.42;;;;;;;14.61;100.00;102004.50;4993312;28;20034;-44
2023/05/08 07:20:07;;;;;;;70.57;38.58;;;;;;;14.70;100.00;102009.50;4975763;28;20034;-43
2023/05/08 07:22:33;;;;;;;63.90;37.28;;;;;;;14.64;100.00;101964.66;4992921;28;20089;-44
2023/05/08 07:24:58;;;;;;;68.95;38.80;;;;;;;15.08;100.00;102026.84;4975984;28;20038;-42
2023/05/08 07:27:23;;;;;;;57.00;36.45;;;;;;;15.14;100.00;102021.34;4993111;28;20066;-42
2023/05/08 07:29:49;;;;;;;78.40;40.15;;;;;;;14.89;100.00;101977.97;4993031;28;20038;-42
2023/05/08 07:32:15;;;;;;;67.97;36.60;;;;;;;15.23;100.00;102029.84;4993001;28;20528;-41
2023/05/08 07:34:40;;;;;;;66.53;37.13;;;;;;;15.27;100.00;102025.31;4992772;28;20610;-41
2023/05/08 07:37:06;;;;;;;65.85;37.35;;;;;;;15.42;100.00;102027.47;4975411;28;20720;-45
2023/05/08 07:39:31;;;;;;;60.47;37.33;;;;;;;15.56;100.00;102029.69;4993057;28;20125;-43
2023/05/08 07:41:57;;;;;;;57.97;37.72;;;;;;;15.50;100.00;101983.00;4993087;28;20042;-41
2023/05/08 07:44:22;;;;;;;54.50;35.95;;;;;;;15.80;100.00;102022.66;4975545;28;20486;-43
2023/05/08 07:46:47;;;;;;;57.72;36.47;;;;;;;15.95;100.00;102036.28;4992895;28;20132;-43
2023/05/08 07:49:13;;;;;;;54.97;35.85;;;;;;;16.17;100.00;102028.41;4992442;28;20643;-41
2023/05/08 07:51:39;;;;;;;53.35;35.50;;;;;;;16.34;100.00;102040.13;4975081;28;20523;-44
2023/05/08 07:54:04;;;;;;;56.60;35.90;;;;;;;16.26;100.00;102031.56;4992714;28;20045;-42
2023/05/08 07:56:30;;;;;;;56.45;35.42;;;;;;;16.31;100.00;102042.88;4991943;28;20074;-42
2023/05/08 07:58:55;;;;;;;53.97;35.55;;;;;;;16.05;100.00;101999.63;4975129;28;20042;-42
2023/05/08 08:01:20;;;;;;;57.45;36.20;;;;;;;16.37;100.00;102049.78;4992361;28;20421;-42
2023/05/08 08:03:46;;;;;;;57.75;37.00;;;;;;;16.39;100.00;102052.38;4992130;28;20054;-41
2023/05/08 08:06:11;;;;;;;53.72;36.47;;;;;;;16.14;100.00;101992.19;4991964;28;20105;-41
2023/05/08 08:08:37;;;;;;;59.55;36.38;;;;;;;16.46;100.00;102041.44;4991898;28;20041;-42
2023/05/08 08:11:03;;;;;;;56.30;35.67;;;;;;;16.64;100.00;102050.56;4992406;28;20053;-43
2023/05/08 08:13:28;;;;;;;52.88;34.42;;;;;;;16.80;100.00;102055.25;4974633;28;20398;-44
2023/05/08 08:15:54;;;;;;;52.75;33.22;;;;;;;16.61;100.00;102009.00;4992015;28;20041;-42
2023/05/08 08:18:19;;;;;;;51.75;33.58;;;;;;;16.72;100.00;102019.25;4992128;28;20093;-46
2023/05/08 08:20:44;;;;;;;52.63;33.67;;;;;;;17.09;100.00;102055.88;4991990;28;20512;-42
2023/05/08 08:23:09;;;;;;;46.42;30.92;;;;;;;16.88;100.00;101991.97;4992048;28;20129;-42
2023/05/08 08:25:35;;;;;;;43.70;29.10;;;;;;;17.40;100.00;102057.22;4991861;28;20494;-42
2023/05/08 08:28:00;;;;;;;46.17;31.27;;;;;;;17.64;100.00;102057.16;4992386;28;20042;-43
2023/05/08 08:30:26;;;;;;;44.20;29.33;;;;;;;17.90;100.00;102041.78;4991912;28;20042;-41
2023/05/08 08:32:51;;;;;;;45.00;29.73;;;;;;;18.37;100.00;102050.34;4974344;28;20049;-43
2023/05/08 08:35:17;;;;;;;40.97;28.30;;;;;;;18.36;100.00;102005.94;4991895;28;20042;-42
2023/05/08 08:37:42;;;;;;;42.40;30.08;;;;;;;18.88;100.00;102063.09;4991666;28;20552;-42
2023/05/08 08:40:08;;;;;;;45.13;29.25;;;;;;;18.91;100.00;102076.25;4991925;28;20659;-44
2023/05/08 08:42:33;;;;;;;39.40;27.65;;;;;;;18.89;100.00;102013.25;4991659;28;20583;-43
2023/05/08 08:45:00;;;;;;;34.47;25.25;;;;;;;19.34;100.00;102064.38;4991593;28;20073;-42
2023/05/08 08:47:32;;;;;;;34.25;23.92;;;;;;;20.45;100.00;102064.00;4991562;28;20042;-43
2023/05/08 08:50:00;;;;;;;32.38;22.63;;;;;;;20.85;100.00;102034.09;4991221;28;20038;-44
2023/05/08 08:52:42;;;;;;;33.85;22.85;;;;;;;21.36;100.00;102088.34;4973925;28;20041;-42
2023/05/08 08:55:11;;;;;;;28.42;20.73;;;;;;;21.18;100.00;102079.56;4991543;28;20448;-44
2023/05/08 08:57:41;;;;;;;33.90;22.13;;;;;;;21.07;100.00;102065.88;4991632;28;20449;-42
2023/05/08 09:00:08;;;;;;;26.83;21.38;;;;;;;21.60;100.00;102084.25;4991130;28;20034;-42
2023/05/08 09:02:34;;;;;;;26.67;20.95;;;;;;;21.42;100.00;102077.28;4990942;28;20081;-42
2023/05/08 09:04:59;;;;;;;25.08;18.98;;;;;;;21.34;100.00;102068.84;4991177;28;20089;-44
2023/05/08 09:07:26;;;;;;;28.13;20.85;;;;;;;21.74;100.00;102066.41;4973309;28;20512;-46
2023/05/08 09:09:52;;;;;;;23.67;18.88;;;;;;;22.19;100.00;102091.41;4973922;28;20067;-43
2023/05/08 09:12:17;;;;;;;24.45;19.55;;;;;;;21.70;100.00;101987.13;4973728;28;20038;-43
2023/05/08 09:14:42;;;;;;;28.83;20.10;;;;;;;22.56;100.00;102090.00;4973939;28;20038;-43
2023/05/08 09:17:08;;;;;;;25.52;21.60;;;;;;;22.57;100.00;102079.16;4991240;28;20148;-41
2023/05/08 09:19:34;;;;;;;32.28;23.70;;;;;;;22.46;100.00;102083.47;4989851;28;20082;-43
2023/05/08 09:22:00;;;;;;;29.90;24.08;;;;;;;22.10;100.00;102087.47;4973587;28;20053;-44
2023/05/08 09:24:43;;;;;;;35.42;26.58;;;;;;;21.64;100.00;102065.22;4973900;28;20034;-43
2023/05/08 09:27:21;;;;;;;38.60;29.40;;;;;;;20.77;100.00;102029.19;4973712;28;20053;-43
2023/05/08 09:30:04;;;;;;;38.97;30.40;;;;;;;20.43;100.00;102026.63;4973830;28;20393;-44
2023/05/08 09:32:30;;;;;;;40.20;30.58;;;;;;;20.28;100.00;102043.53;4990911;28;20038;-43
2023/05/08 09:34:56;;;;;;;39.42;31.17;;;;;;;19.97;100.00;102022.00;4991120;28;20038;-43
2023/05/08 09:37:21;;;;;;;41.88;31.27;;;;;;;20.00;100.00;102077.94;4973559;28;20367;-43
2023/05/08 09:39:47;;;;;;;45.45;33.35;;;;;;;19.57;100.00;101999.16;4990892;28;20409;-45
2023/05/08 09:42:13;;;;;;;49.30;34.65;;;;;;;19.81;100.00;102062.03;4991356;28;20129;-45
2023/05/08 09:44:49;;;;;;;43.92;32.60;;;;;;;19.28;100.00;102018.44;4990914;28;20494;-45
2023/05/08 09:47:22;;;;;;;47.63;34.72;;;;;;;19.01;100.00;102015.31;4991159;28;20042;-43
2023/05/08 09:50:07;;;;;;;48.92;33.75;;;;;;;19.21;100.00;102060.56;4973720;28;20398;-43
2023/05/08 09:52:33;;;;;;;53.60;34.83;;;;;;;19.24;100.00;102060.44;4970659;28;20067;-42
2023/05/08 09:55:16;;;;;;;48.25;33.20;;;;;;;19.50;100.00;102060.03;4989981;28;20069;-42
2023/05/08 09:57:55;;;;;;;44.25;31.40;;;;;;;19.65;100.00;102011.19;4973792;28;20034;-48
2023/05/08 10:00:22;;;;;;;44.55;31.85;;;;;;;20.38;100.00;102068.81;4974758;28;20089;-42
2023/05/08 10:03:00;;;;;;;41.47;30.70;;;;;;;20.15;100.00;102035.25;4994430;28;20026;-42
2023/05/08 10:05:30;;;;;;;45.83;30.70;;;;;;;20.80;100.00;102081.66;4994705;28;20090;-44
2023/05/08 10:08:17;;;;;;;41.70;29.58;;;;;;;20.94;100.00;102017.53;4994442;28;20046;-43
2023/05/08 10:10:43;;;;;;;37.22;29.15;;;;;;;21.97;100.00;102073.09;4994572;28;20030;-43
2023/05/08 10:13:08;;;;;;;37.38;28.63;;;;;;;21.79;100.00;102075.03;4960627;28;20089;-43
2023/05/08 10:15:37;;;;;;;36.72;27.25;;;;;;;21.76;100.00;102074.34;4994484;28;20037;-44
2023/05/08 10:18:04;;;;;;;38.60;27.13;;;;;;;22.33;100.00;102076.19;4995006;28;20034;-43
2023/05/08 10:20:30;;;;;;;31.80;26.23;;;;;;;22.95;100.00;102074.94;4994338;28;20034;-43
2023/05/08 10:22:57;;;;;;;32.22;24.75;;;;;;;23.56;100.00;102070.06;4976495;28;20030;-42
2023/05/08 10:25:23;;;;;;;25.95;22.15;;;;;;;23.63;100.00;102050.75;4994295;28;20058;-43
2023/05/08 10:28:00;;;;;;;24.40;21.80;;;;;;;23.37;100.00;102030.97;4994244;28;20231;-41
2023/05/08 10:30:26;;;;;;;24.02;20.67;;;;;;;23.54;100.00;102094.34;4976601;28;20035;-43
2023/05/08 10:32:58;;;;;;;23.38;21.13;;;;;;;22.84;100.00;102084.63;4959243;28;20057;-42
2023/05/08 10:35:24;;;;;;;23.25;20.58;;;;;;;22.74;100.00;102091.53;4976442;28;20760;-43
2023/05/08 10:37:50;;;;;;;28.45;25.45;;;;;;;22.52;100.00;102014.19;4976661;28;20038;-42
2023/05/08 10:40:17;;;;;;;27.58;24.83;;;;;;;23.13;100.00;102099.75;4960254;28;20089;-41
2023/05/08 10:42:42;;;;;;;30.90;27.73;;;;;;;22.32;100.00;102038.75;4993996;28;20041;-42
2023/05/08 10:45:08;;;;;;;30.00;27.00;;;;;;;22.79;100.00;102030.41;4993778;28;20042;-44
2023/05/08 10:47:58;;;;;;;32.60;28.75;;;;;;;23.58;100.00;102086.97;4976200;28;20035;-44
2023/05/08 10:50:32;;;;;;;33.93;30.57;;;;;;;24.13;100.00;102081.38;4993688;28;20026;-42
2023/05/08 10:53:04;;;;;;;32.45;29.25;;;;;;;24.62;100.00;102090.41;4976302;28;20285;-44
2023/05/08 10:55:31;;;;;;;31.50;28.50;;;;;;;24.92;100.00;102085.56;4960279;28;20042;-48
2023/05/08 10:58:05;;;;;;;30.55;27.65;;;;;;;25.19;100.00;102078.13;4975968;28;20117;-48
2023/05/08 11:00:32;;;;;;;30.85;27.95;;;;;;;25.27;100.00;102098.25;4993137;28;20121;-44